sensor_id;sensor_type;location;lat;lon;timestamp;P1;durP1;ratioP1;P2;durP2;ratioP2
5762;SDS011;2906;53.282;9.508;2023-05-15T00:00:56;14.90;;;6.00;;
5762;SDS011;2906;53.282;9.508;2023-05-15T00:01:58;16.80;;;5.80;;
5762;SDS011;2906;53.282;9.508;2023-05-15T00:03:01;18.25;;;6.00;;
5762;SDS011;2906;53.282;9.508;2023-05-15T00:04:03;14.35;;;6.03;;
5762;SDS011;2906;53.282;9.508;2023-05-15T00:05:06;15.48;;;6.85;;
5762;SDS011;2906;53.282;9.508;2023-05-15T00:06:08;15.43;;;7.00;;
5762;SDS011;2906;53.282;9.508;2023-05-15T00:07:09;34.95;;;8.48;;
5762;SDS011;2906;53.282;9.508;2023-05-15T00:08:12;16.58;;;7.10;;
5762;SDS011;2906;53.282;9.508;2023-05-15T00:09:13;16.52;;;7.43;;
5762;SDS011;2906;53.282;9.508;2023-05-15T00:10:16;25.15;;;7.05;;
5762;SDS011;2906;53.282;9.508;2023-05-15T00:11:18;17.25;;;7.25;;
5762;SDS011;2906;53.282;9.508;2023-05-15T00:12:22;17.60;;;7.35;;
5762;SDS011;2906;53.282;9.508;2023-05-15T00:13:23;18.30;;;7.47;;
5762;SDS011;2906;53.282;9.508;2023-05-15T00:14:25;16.92;;;6.57;;
5762;SDS011;2906;53.282;9.508;2023-05-15T00:15:27;16.75;;;7.65;;
5762;SDS011;2906;53.282;9.508;2023-05-15T00:16:29;15.07;;;7.22;;
5762;SDS011;2906;53.282;9.508;2023-05-15T00:17:30;19.23;;;7.38;;
5762;SDS011;2906;53.282;9.508;2023-05-15T00:18:32;15.88;;;7.22;;
5762;SDS011;2906;53.282;9.508;2023-05-15T00:19:34;17.17;;;6.82;;
5762;SDS011;2906;53.282;9.508;2023-05-15T00:20:36;16.50;;;7.47;;
5762;SDS011;2906;53.282;9.508;2023-05-15T00:21:38;18.83;;;7.70;;
5762;SDS011;2906;53.282;9.508;2023-05-15T00:22:40;29.45;;;7.57;;
5762;SDS011;2906;53.282;9.508;2023-05-15T00:23:41;16.90;;;7.22;;
5762;SDS011;2906;53.282;9.508;2023-05-15T00:24:43;13.90;;;6.13;;
5762;SDS011;2906;53.282;9.508;2023-05-15T00:25:46;14.25;;;5.93;;
5762;SDS011;2906;53.282;9.508;2023-05-15T00:26:48;16.02;;;6.88;;
5762;SDS011;2906;53.282;9.508;2023-05-15T00:27:49;18.05;;;6.63;;
5762;SDS011;2906;53.282;9.508;2023-05-15T00:28:52;15.13;;;6.43;;
5762;SDS011;2906;53.282;9.508;2023-05-15T00:29:53;17.52;;;7.65;;
5762;SDS011;2906;53.282;9.508;2023-05-15T00:30:55;15.07;;;6.35;;
5762;SDS011;2906;53.282;9.508;2023-05-15T00:31:56;15.20;;;7.05;;
5762;SDS011;2906;53.282;9.508;2023-05-15T00:32:59;15.90;;;7.32;;
5762;SDS011;2906;53.282;9.508;2023-05-15T00:34:00;15.35;;;6.78;;
5762;SDS011;2906;53.282;9.508;2023-05-15T00:35:02;15.00;;;6.85;;
5762;SDS011;2906;53.282;9.508;2023-05-15T00:36:04;17.20;;;6.82;;
5762;SDS011;2906;53.282;9.508;2023-05-15T00:37:06;19.70;;;7.70;;
5762;SDS011;2906;53.282;9.508;2023-05-15T00:38:08;18.58;;;7.53;;
5762;SDS011;2906;53.282;9.508;2023-05-15T00:39:10;16.13;;;7.07;;
5762;SDS011;2906;53.282;9.508;2023-05-15T00:40:11;21.50;;;7.38;;
5762;SDS011;2906;53.282;9.508;2023-05-15T00:41:21;19.48;;;7.15;;
5762;SDS011;2906;53.282;9.508;2023-05-15T00:42:23;17.20;;;7.28;;
5762;SDS011;2906;53.282;9.508;2023-05-15T00:43:25;17.27;;;7.10;;
5762;SDS011;2906;53.282;9.508;2023-05-15T00:44:28;17.85;;;7.53;;
5762;SDS011;2906;53.282;9.508;2023-05-15T00:45:31;16.23;;;7.40;;
5762;SDS011;2906;53.282;9.508;2023-05-15T00:46:34;18.33;;;7.95;;
5762;SDS011;2906;53.282;9.508;2023-05-15T00:47:36;24.10;;;7.35;;
5762;SDS011;2906;53.282;9.508;2023-05-15T00:48:38;15.60;;;6.95;;
5762;SDS011;2906;53.282;9.508;2023-05-15T00:49:41;20.92;;;7.53;;
5762;SDS011;2906;53.282;9.508;2023-05-15T00:50:43;17.00;;;7.35;;
5762;SDS011;2906;53.282;9.508;2023-05-15T00:51:45;15.88;;;6.90;;
5762;SDS011;2906;53.282;9.508;2023-05-15T00:52:47;15.63;;;7.07;;
5762;SDS011;2906;53.282;9.508;2023-05-15T00:53:51;17.85;;;7.57;;
5762;SDS011;2906;53.282;9.508;2023-05-15T00:54:52;16.20;;;7.53;;
5762;SDS011;2906;53.282;9.508;2023-05-15T00:55:55;18.35;;;8.00;;
5762;SDS011;2906;53.282;9.508;2023-05-15T00:56:58;25.52;;;8.13;;
5762;SDS011;2906;53.282;9.508;2023-05-15T00:58:01;17.98;;;8.43;;
5762;SDS011;2906;53.282;9.508;2023-05-15T00:59:03;20.60;;;7.50;;
5762;SDS011;2906;53.282;9.508;2023-05-15T01:00:06;17.58;;;7.70;;
5762;SDS011;2906;53.282;9.508;2023-05-15T01:01:09;23.17;;;8.02;;
5762;SDS011;2906;53.282;9.508;2023-05-15T01:02:11;17.20;;;7.32;;
5762;SDS011;2906;53.282;9.508;2023-05-15T01:03:13;16.08;;;7.25;;
5762;SDS011;2906;53.282;9.508;2023-05-15T01:04:15;17.67;;;7.63;;
5762;SDS011;2906;53.282;9.508;2023-05-15T01:05:16;17.33;;;7.00;;
5762;SDS011;2906;53.282;9.508;2023-05-15T01:06:19;17.33;;;7.82;;
5762;SDS011;2906;53.282;9.508;2023-05-15T01:07:20;17.48;;;7.57;;
5762;SDS011;2906;53.282;9.508;2023-05-15T01:08:25;17.60;;;8.10;;
5762;SDS011;2906;53.282;9.508;2023-05-15T01:09:26;17.98;;;7.78;;
5762;SDS011;2906;53.282;9.508;2023-05-15T01:10:31;16.92;;;7.82;;
5762;SDS011;2906;53.282;9.508;2023-05-15T01:11:34;18.25;;;8.18;;
5762;SDS011;2906;53.282;9.508;2023-05-15T01:12:40;18.05;;;7.90;;
5762;SDS011;2906;53.282;9.508;2023-05-15T01:13:42;19.23;;;7.50;;
5762;SDS011;2906;53.282;9.508;2023-05-15T01:14:45;16.23;;;6.40;;
5762;SDS011;2906;53.282;9.508;2023-05-15T01:15:46;19.08;;;7.97;;
5762;SDS011;2906;53.282;9.508;2023-05-15T01:16:48;17.58;;;7.55;;
5762;SDS011;2906;53.282;9.508;2023-05-15T01:17:50;17.52;;;8.07;;
5762;SDS011;2906;53.282;9.508;2023-05-15T01:18:52;17.60;;;7.82;;
5762;SDS011;2906;53.282;9.508;2023-05-15T01:19:53;19.08;;;8.00;;
5762;SDS011;2906;53.282;9.508;2023-05-15T01:21:03;16.80;;;7.55;;
5762;SDS011;2906;53.282;9.508;2023-05-15T01:23:26;16.67;;;7.53;;
5762;SDS011;2906;53.282;9.508;2023-05-15T01:24:34;17.70;;;7.15;;
5762;SDS011;2906;53.282;9.508;2023-05-15T01:25:46;18.10;;;7.85;;
5762;SDS011;2906;53.282;9.508;2023-05-15T01:28:13;20.33;;;7.60;;
5762;SDS011;2906;53.282;9.508;2023-05-15T01:29:19;16.50;;;7.53;;
5762;SDS011;2906;53.282;9.508;2023-05-15T01:30:25;16.67;;;7.25;;
5762;SDS011;2906;53.282;9.508;2023-05-15T01:31:29;19.92;;;7.20;;
5762;SDS011;2906;53.282;9.508;2023-05-15T01:32:34;21.08;;;7.68;;
5762;SDS011;2906;53.282;9.508;2023-05-15T01:33:37;17.05;;;6.40;;
5762;SDS011;2906;53.282;9.508;2023-05-15T01:34:42;18.60;;;7.35;;
5762;SDS011;2906;53.282;9.508;2023-05-15T01:35:46;19.98;;;7.68;;
5762;SDS011;2906;53.282;9.508;2023-05-15T01:36:52;18.70;;;7.72;;
5762;SDS011;2906;53.282;9.508;2023-05-15T01:37:58;18.00;;;7.57;;
5762;SDS011;2906;53.282;9.508;2023-05-15T01:39:02;19.80;;;7.40;;
5762;SDS011;2906;53.282;9.508;2023-05-15T01:40:04;18.48;;;7.88;;
5762;SDS011;2906;53.282;9.508;2023-05-15T01:41:09;21.48;;;8.38;;
5762;SDS011;2906;53.282;9.508;2023-05-15T01:42:12;19.80;;;8.30;;
5762;SDS011;2906;53.282;9.508;2023-05-15T01:43:19;19.85;;;8.15;;
5762;SDS011;2906;53.282;9.508;2023-05-15T01:44:23;24.77;;;8.77;;
5762;SDS011;2906;53.282;9.508;2023-05-15T01:45:27;17.23;;;8.10;;
5762;SDS011;2906;53.282;9.508;2023-05-15T01:46:28;17.27;;;8.05;;
5762;SDS011;2906;53.282;9.508;2023-05-15T01:47:33;17.88;;;8.50;;
5762;SDS011;2906;53.282;9.508;2023-05-15T01:48:36;20.58;;;8.48;;
5762;SDS011;2906;53.282;9.508;2023-05-15T01:49:40;25.92;;;9.38;;
5762;SDS011;2906;53.282;9.508;2023-05-15T01:50:43;20.60;;;8.68;;
5762;SDS011;2906;53.282;9.508;2023-05-15T01:51:47;19.85;;;8.98;;
5762;SDS011;2906;53.282;9.508;2023-05-15T01:52:53;17.95;;;8.70;;
5762;SDS011;2906;53.282;9.508;2023-05-15T01:53:57;23.60;;;8.57;;
5762;SDS011;2906;53.282;9.508;2023-05-15T01:55:00;20.52;;;9.35;;
5762;SDS011;2906;53.282;9.508;2023-05-15T01:56:04;20.60;;;8.00;;
5762;SDS011;2906;53.282;9.508;2023-05-15T01:57:08;18.13;;;9.00;;
5762;SDS011;2906;53.282;9.508;2023-05-15T01:58:10;18.38;;;9.40;;
5762;SDS011;2906;53.282;9.508;2023-05-15T01:59:14;22.23;;;9.45;;
5762;SDS011;2906;53.282;9.508;2023-05-15T02:00:17;20.88;;;9.15;;
5762;SDS011;2906;53.282;9.508;2023-05-15T02:01:18;18.02;;;9.20;;
5762;SDS011;2906;53.282;9.508;2023-05-15T02:02:21;18.77;;;8.35;;
5762;SDS011;2906;53.282;9.508;2023-05-15T02:03:23;18.10;;;9.30;;
5762;SDS011;2906;53.282;9.508;2023-05-15T02:04:25;24.50;;;8.07;;
5762;SDS011;2906;53.282;9.508;2023-05-15T02:05:27;18.73;;;8.52;;
5762;SDS011;2906;53.282;9.508;2023-05-15T02:06:30;20.20;;;8.90;;
5762;SDS011;2906;53.282;9.508;2023-05-15T02:07:32;21.50;;;8.88;;
5762;SDS011;2906;53.282;9.508;2023-05-15T02:08:34;26.10;;;9.32;;
5762;SDS011;2906;53.282;9.508;2023-05-15T02:09:36;18.92;;;8.98;;
5762;SDS011;2906;53.282;9.508;2023-05-15T02:10:39;21.55;;;9.55;;
5762;SDS011;2906;53.282;9.508;2023-05-15T02:11:41;18.23;;;9.35;;
5762;SDS011;2906;53.282;9.508;2023-05-15T02:12:43;18.92;;;8.80;;
5762;SDS011;2906;53.282;9.508;2023-05-15T02:13:45;19.10;;;9.07;;
5762;SDS011;2906;53.282;9.508;2023-05-15T02:14:49;18.83;;;8.73;;
5762;SDS011;2906;53.282;9.508;2023-05-15T02:15:50;20.02;;;9.45;;
5762;SDS011;2906;53.282;9.508;2023-05-15T02:16:53;19.00;;;9.02;;
5762;SDS011;2906;53.282;9.508;2023-05-15T02:17:54;18.67;;;8.60;;
5762;SDS011;2906;53.282;9.508;2023-05-15T02:18:57;22.40;;;9.40;;
5762;SDS011;2906;53.282;9.508;2023-05-15T02:19:58;20.45;;;8.30;;
5762;SDS011;2906;53.282;9.508;2023-05-15T02:21:00;18.17;;;8.15;;
5762;SDS011;2906;53.282;9.508;2023-05-15T02:22:02;20.65;;;9.25;;
5762;SDS011;2906;53.282;9.508;2023-05-15T02:23:04;18.60;;;8.85;;
5762;SDS011;2906;53.282;9.508;2023-05-15T02:24:05;20.05;;;8.63;;
5762;SDS011;2906;53.282;9.508;2023-05-15T02:25:07;21.52;;;9.52;;
5762;SDS011;2906;53.282;9.508;2023-05-15T02:26:14;23.10;;;9.25;;
5762;SDS011;2906;53.282;9.508;2023-05-15T02:27:21;21.58;;;9.15;;
5762;SDS011;2906;53.282;9.508;2023-05-15T02:28:27;18.83;;;9.55;;
5762;SDS011;2906;53.282;9.508;2023-05-15T02:29:33;20.63;;;9.35;;
5762;SDS011;2906;53.282;9.508;2023-05-15T02:30:39;21.60;;;9.02;;
5762;SDS011;2906;53.282;9.508;2023-05-15T02:31:46;17.25;;;9.25;;
5762;SDS011;2906;53.282;9.508;2023-05-15T02:32:53;17.55;;;9.13;;
5762;SDS011;2906;53.282;9.508;2023-05-15T02:33:58;21.17;;;8.95;;
5762;SDS011;2906;53.282;9.508;2023-05-15T02:35:02;19.10;;;9.15;;
5762;SDS011;2906;53.282;9.508;2023-05-15T02:36:14;20.55;;;8.30;;
5762;SDS011;2906;53.282;9.508;2023-05-15T02:37:18;18.88;;;8.18;;
5762;SDS011;2906;53.282;9.508;2023-05-15T02:38:22;20.88;;;10.00;;
5762;SDS011;2906;53.282;9.508;2023-05-15T02:39:26;17.13;;;8.40;;
5762;SDS011;2906;53.282;9.508;2023-05-15T02:40:28;17.80;;;8.73;;
5762;SDS011;2906;53.282;9.508;2023-05-15T02:41:30;17.35;;;8.13;;
5762;SDS011;2906;53.282;9.508;2023-05-15T02:42:34;17.55;;;7.88;;
5762;SDS011;2906;53.282;9.508;2023-05-15T02:43:36;19.95;;;8.05;;
5762;SDS011;2906;53.282;9.508;2023-05-15T02:44:39;15.88;;;7.28;;
5762;SDS011;2906;53.282;9.508;2023-05-15T02:45:42;17.20;;;7.72;;
5762;SDS011;2906;53.282;9.508;2023-05-15T02:46:46;18.55;;;8.38;;
5762;SDS011;2906;53.282;9.508;2023-05-15T02:47:48;22.90;;;7.57;;
5762;SDS011;2906;53.282;9.508;2023-05-15T02:48:51;18.23;;;7.45;;
5762;SDS011;2906;53.282;9.508;2023-05-15T02:49:53;16.50;;;7.93;;
5762;SDS011;2906;53.282;9.508;2023-05-15T02:50:56;17.70;;;8.20;;
5762;SDS011;2906;53.282;9.508;2023-05-15T02:51:57;18.90;;;8.30;;
5762;SDS011;2906;53.282;9.508;2023-05-15T02:53:00;19.85;;;9.23;;
5762;SDS011;2906;53.282;9.508;2023-05-15T02:54:02;19.67;;;9.13;;
5762;SDS011;2906;53.282;9.508;2023-05-15T02:55:05;23.63;;;9.20;;
5762;SDS011;2906;53.282;9.508;2023-05-15T02:56:07;25.92;;;9.15;;
5762;SDS011;2906;53.282;9.508;2023-05-15T02:57:09;17.55;;;9.00;;
5762;SDS011;2906;53.282;9.508;2023-05-15T02:58:11;19.63;;;9.10;;
5762;SDS011;2906;53.282;9.508;2023-05-15T02:59:13;20.48;;;9.18;;
5762;SDS011;2906;53.282;9.508;2023-05-15T03:00:18;18.67;;;9.68;;
5762;SDS011;2906;53.282;9.508;2023-05-15T03:01:22;19.80;;;9.48;;
5762;SDS011;2906;53.282;9.508;2023-05-15T03:02:24;18.77;;;8.95;;
5762;SDS011;2906;53.282;9.508;2023-05-15T03:03:26;21.35;;;10.52;;
5762;SDS011;2906;53.282;9.508;2023-05-15T03:04:27;20.00;;;9.80;;
5762;SDS011;2906;53.282;9.508;2023-05-15T03:05:30;17.35;;;9.18;;
5762;SDS011;2906;53.282;9.508;2023-05-15T03:06:31;22.70;;;10.90;;
5762;SDS011;2906;53.282;9.508;2023-05-15T03:07:33;26.25;;;10.15;;
5762;SDS011;2906;53.282;9.508;2023-05-15T03:08:34;23.70;;;10.18;;
5762;SDS011;2906;53.282;9.508;2023-05-15T03:09:37;24.05;;;11.10;;
5762;SDS011;2906;53.282;9.508;2023-05-15T03:10:38;20.23;;;10.88;;
5762;SDS011;2906;53.282;9.508;2023-05-15T03:11:40;26.23;;;9.90;;
5762;SDS011;2906;53.282;9.508;2023-05-15T03:12:41;24.27;;;10.52;;
5762;SDS011;2906;53.282;9.508;2023-05-15T03:13:43;22.25;;;10.27;;
5762;SDS011;2906;53.282;9.508;2023-05-15T03:14:45;19.58;;;10.00;;
5762;SDS011;2906;53.282;9.508;2023-05-15T03:15:47;25.38;;;9.65;;
5762;SDS011;2906;53.282;9.508;2023-05-15T03:16:49;19.52;;;9.98;;
5762;SDS011;2906;53.282;9.508;2023-05-15T03:17:52;19.05;;;9.55;;
5762;SDS011;2906;53.282;9.508;2023-05-15T03:18:53;17.45;;;9.00;;
5762;SDS011;2906;53.282;9.508;2023-05-15T03:19:56;22.15;;;9.00;;
5762;SDS011;2906;53.282;9.508;2023-05-15T03:20:57;20.30;;;8.82;;
5762;SDS011;2906;53.282;9.508;2023-05-15T03:21:59;21.35;;;9.25;;
5762;SDS011;2906;53.282;9.508;2023-05-15T03:23:00;23.02;;;8.85;;
5762;SDS011;2906;53.282;9.508;2023-05-15T03:24:03;35.47;;;8.75;;
5762;SDS011;2906;53.282;9.508;2023-05-15T03:25:04;18.33;;;8.60;;
5762;SDS011;2906;53.282;9.508;2023-05-15T03:26:07;17.40;;;8.55;;
5762;SDS011;2906;53.282;9.508;2023-05-15T03:27:08;18.30;;;8.63;;
5762;SDS011;2906;53.282;9.508;2023-05-15T03:28:10;15.32;;;7.95;;
5762;SDS011;2906;53.282;9.508;2023-05-15T03:29:12;17.35;;;8.05;;
5762;SDS011;2906;53.282;9.508;2023-05-15T03:30:14;17.52;;;8.05;;
5762;SDS011;2906;53.282;9.508;2023-05-15T03:31:15;16.95;;;8.05;;
5762;SDS011;2906;53.282;9.508;2023-05-15T03:32:19;17.00;;;7.30;;
5762;SDS011;2906;53.282;9.508;2023-05-15T03:33:20;16.90;;;7.82;;
5762;SDS011;2906;53.282;9.508;2023-05-15T03:34:22;16.83;;;8.10;;
5762;SDS011;2906;53.282;9.508;2023-05-15T03:35:23;15.25;;;7.20;;
5762;SDS011;2906;53.282;9.508;2023-05-15T03:36:26;17.27;;;8.23;;
5762;SDS011;2906;53.282;9.508;2023-05-15T03:37:28;18.83;;;8.57;;
5762;SDS011;2906;53.282;9.508;2023-05-15T03:38:29;19.17;;;9.13;;
5762;SDS011;2906;53.282;9.508;2023-05-15T03:39:31;20.48;;;9.20;;
5762;SDS011;2906;53.282;9.508;2023-05-15T03:40:33;18.80;;;8.90;;
5762;SDS011;2906;53.282;9.508;2023-05-15T03:41:35;17.83;;;8.65;;
5762;SDS011;2906;53.282;9.508;2023-05-15T03:42:36;19.20;;;8.63;;
5762;SDS011;2906;53.282;9.508;2023-05-15T03:43:38;20.15;;;8.45;;
5762;SDS011;2906;53.282;9.508;2023-05-15T03:44:40;18.42;;;8.63;;
5762;SDS011;2906;53.282;9.508;2023-05-15T03:45:42;18.90;;;8.48;;
5762;SDS011;2906;53.282;9.508;2023-05-15T03:46:44;18.67;;;8.80;;
5762;SDS011;2906;53.282;9.508;2023-05-15T03:47:47;20.75;;;9.13;;
5762;SDS011;2906;53.282;9.508;2023-05-15T03:48:49;17.75;;;9.05;;
5762;SDS011;2906;53.282;9.508;2023-05-15T03:49:51;16.42;;;8.40;;
5762;SDS011;2906;53.282;9.508;2023-05-15T03:50:52;22.42;;;10.23;;
5762;SDS011;2906;53.282;9.508;2023-05-15T03:51:55;21.55;;;9.20;;
5762;SDS011;2906;53.282;9.508;2023-05-15T03:52:56;21.65;;;9.65;;
5762;SDS011;2906;53.282;9.508;2023-05-15T03:53:58;22.17;;;9.13;;
5762;SDS011;2906;53.282;9.508;2023-05-15T03:54:59;24.20;;;9.10;;
5762;SDS011;2906;53.282;9.508;2023-05-15T03:56:02;19.90;;;9.68;;
5762;SDS011;2906;53.282;9.508;2023-05-15T03:57:05;19.90;;;9.25;;
5762;SDS011;2906;53.282;9.508;2023-05-15T03:58:06;19.70;;;9.40;;
5762;SDS011;2906;53.282;9.508;2023-05-15T03:59:09;18.73;;;9.52;;
5762;SDS011;2906;53.282;9.508;2023-05-15T04:00:10;20.45;;;9.13;;
5762;SDS011;2906;53.282;9.508;2023-05-15T04:01:13;19.48;;;9.27;;
5762;SDS011;2906;53.282;9.508;2023-05-15T04:02:14;21.60;;;9.82;;
5762;SDS011;2906;53.282;9.508;2023-05-15T04:03:19;18.52;;;9.32;;
5762;SDS011;2906;53.282;9.508;2023-05-15T04:04:20;20.00;;;9.30;;
5762;SDS011;2906;53.282;9.508;2023-05-15T04:05:22;18.85;;;9.20;;
5762;SDS011;2906;53.282;9.508;2023-05-15T04:06:23;20.60;;;9.70;;
5762;SDS011;2906;53.282;9.508;2023-05-15T04:07:25;20.40;;;9.68;;
5762;SDS011;2906;53.282;9.508;2023-05-15T04:08:27;18.15;;;9.55;;
5762;SDS011;2906;53.282;9.508;2023-05-15T04:09:29;19.45;;;8.95;;
5762;SDS011;2906;53.282;9.508;2023-05-15T04:10:30;19.38;;;9.32;;
5762;SDS011;2906;53.282;9.508;2023-05-15T04:11:32;20.65;;;8.95;;
5762;SDS011;2906;53.282;9.508;2023-05-15T04:12:34;17.80;;;8.48;;
5762;SDS011;2906;53.282;9.508;2023-05-15T04:13:36;19.00;;;9.30;;
5762;SDS011;2906;53.282;9.508;2023-05-15T04:14:38;19.83;;;9.68;;
5762;SDS011;2906;53.282;9.508;2023-05-15T04:15:40;20.95;;;8.90;;
5762;SDS011;2906;53.282;9.508;2023-05-15T04:16:42;18.88;;;9.20;;
5762;SDS011;2906;53.282;9.508;2023-05-15T04:17:43;20.80;;;9.73;;
5762;SDS011;2906;53.282;9.508;2023-05-15T04:18:47;20.83;;;10.00;;
5762;SDS011;2906;53.282;9.508;2023-05-15T04:19:49;21.80;;;8.95;;
5762;SDS011;2906;53.282;9.508;2023-05-15T04:20:51;21.52;;;9.75;;
5762;SDS011;2906;53.282;9.508;2023-05-15T04:21:52;20.38;;;9.57;;
5762;SDS011;2906;53.282;9.508;2023-05-15T04:22:55;19.25;;;10.07;;
5762;SDS011;2906;53.282;9.508;2023-05-15T04:23:56;21.77;;;9.85;;
5762;SDS011;2906;53.282;9.508;2023-05-15T04:24:58;21.23;;;9.70;;
5762;SDS011;2906;53.282;9.508;2023-05-15T04:26:00;21.50;;;10.00;;
5762;SDS011;2906;53.282;9.508;2023-05-15T04:27:02;19.17;;;9.77;;
5762;SDS011;2906;53.282;9.508;2023-05-15T04:28:03;27.42;;;12.48;;
5762;SDS011;2906;53.282;9.508;2023-05-15T04:29:06;23.90;;;11.60;;
5762;SDS011;2906;53.282;9.508;2023-05-15T04:30:08;22.75;;;10.98;;
5762;SDS011;2906;53.282;9.508;2023-05-15T04:31:11;23.70;;;11.10;;
5762;SDS011;2906;53.282;9.508;2023-05-15T04:32:12;25.85;;;10.88;;
5762;SDS011;2906;53.282;9.508;2023-05-15T04:33:15;19.38;;;10.63;;
5762;SDS011;2906;53.282;9.508;2023-05-15T04:34:17;20.88;;;10.77;;
5762;SDS011;2906;53.282;9.508;2023-05-15T04:35:19;21.20;;;10.32;;
5762;SDS011;2906;53.282;9.508;2023-05-15T04:36:21;23.08;;;10.95;;
5762;SDS011;2906;53.282;9.508;2023-05-15T04:37:23;20.10;;;9.82;;
5762;SDS011;2906;53.282;9.508;2023-05-15T04:38:24;20.85;;;10.30;;
5762;SDS011;2906;53.282;9.508;2023-05-15T04:39:27;21.83;;;9.80;;
5762;SDS011;2906;53.282;9.508;2023-05-15T04:40:28;21.60;;;10.75;;
5762;SDS011;2906;53.282;9.508;2023-05-15T04:41:30;41.08;;;10.68;;
5762;SDS011;2906;53.282;9.508;2023-05-15T04:42:32;24.58;;;10.77;;
5762;SDS011;2906;53.282;9.508;2023-05-15T04:43:34;24.90;;;11.15;;
5762;SDS011;2906;53.282;9.508;2023-05-15T04:44:36;22.60;;;10.35;;
5762;SDS011;2906;53.282;9.508;2023-05-15T04:45:38;24.05;;;10.45;;
5762;SDS011;2906;53.282;9.508;2023-05-15T04:46:40;18.92;;;9.77;;
5762;SDS011;2906;53.282;9.508;2023-05-15T04:47:41;21.58;;;9.13;;
5762;SDS011;2906;53.282;9.508;2023-05-15T04:48:44;21.63;;;10.45;;
5762;SDS011;2906;53.282;9.508;2023-05-15T04:49:46;23.30;;;10.90;;
5762;SDS011;2906;53.282;9.508;2023-05-15T04:50:49;19.10;;;9.50;;
5762;SDS011;2906;53.282;9.508;2023-05-15T04:51:50;23.73;;;10.93;;
5762;SDS011;2906;53.282;9.508;2023-05-15T04:52:53;19.02;;;10.18;;
5762;SDS011;2906;53.282;9.508;2023-05-15T04:53:54;23.38;;;10.98;;
5762;SDS011;2906;53.282;9.508;2023-05-15T04:54:56;20.98;;;9.80;;
5762;SDS011;2906;53.282;9.508;2023-05-15T04:55:57;21.27;;;10.35;;
5762;SDS011;2906;53.282;9.508;2023-05-15T04:57:00;24.98;;;11.15;;
5762;SDS011;2906;53.282;9.508;2023-05-15T04:58:01;22.58;;;11.15;;
5762;SDS011;2906;53.282;9.508;2023-05-15T04:59:03;24.27;;;11.00;;
5762;SDS011;2906;53.282;9.508;2023-05-15T05:00:05;21.48;;;11.25;;
5762;SDS011;2906;53.282;9.508;2023-05-15T05:01:11;25.45;;;11.60;;
5762;SDS011;2906;53.282;9.508;2023-05-15T05:02:12;22.63;;;11.60;;
5762;SDS011;2906;53.282;9.508;2023-05-15T05:03:14;22.83;;;11.57;;
5762;SDS011;2906;53.282;9.508;2023-05-15T05:04:15;22.05;;;11.55;;
5762;SDS011;2906;53.282;9.508;2023-05-15T05:05:20;24.33;;;11.32;;
5762;SDS011;2906;53.282;9.508;2023-05-15T05:06:21;26.35;;;12.40;;
5762;SDS011;2906;53.282;9.508;2023-05-15T05:07:23;25.55;;;11.80;;
5762;SDS011;2906;53.282;9.508;2023-05-15T05:08:26;27.48;;;11.63;;
5762;SDS011;2906;53.282;9.508;2023-05-15T05:09:27;24.58;;;11.70;;
5762;SDS011;2906;53.282;9.508;2023-05-15T05:10:29;26.08;;;12.48;;
5762;SDS011;2906;53.282;9.508;2023-05-15T05:11:32;27.45;;;12.32;;
5762;SDS011;2906;53.282;9.508;2023-05-15T05:12:34;24.17;;;11.88;;
5762;SDS011;2906;53.282;9.508;2023-05-15T05:13:36;22.80;;;11.73;;
5762;SDS011;2906;53.282;9.508;2023-05-15T05:14:38;26.35;;;12.45;;
5762;SDS011;2906;53.282;9.508;2023-05-15T05:15:41;26.27;;;11.90;;
5762;SDS011;2906;53.282;9.508;2023-05-15T05:16:43;25.58;;;13.13;;
5762;SDS011;2906;53.282;9.508;2023-05-15T05:17:45;24.90;;;12.20;;
5762;SDS011;2906;53.282;9.508;2023-05-15T05:18:47;25.27;;;11.50;;
5762;SDS011;2906;53.282;9.508;2023-05-15T05:19:49;26.08;;;12.07;;
5762;SDS011;2906;53.282;9.508;2023-05-15T05:20:58;31.17;;;12.80;;
5762;SDS011;2906;53.282;9.508;2023-05-15T05:22:02;24.08;;;12.05;;
5762;SDS011;2906;53.282;9.508;2023-05-15T05:23:04;21.73;;;11.65;;
5762;SDS011;2906;53.282;9.508;2023-05-15T05:24:06;23.35;;;11.25;;
5762;SDS011;2906;53.282;9.508;2023-05-15T05:25:07;28.98;;;12.40;;
5762;SDS011;2906;53.282;9.508;2023-05-15T05:26:10;22.50;;;10.77;;
5762;SDS011;2906;53.282;9.508;2023-05-15T05:27:11;22.63;;;11.60;;
5762;SDS011;2906;53.282;9.508;2023-05-15T05:28:13;21.52;;;10.57;;
5762;SDS011;2906;53.282;9.508;2023-05-15T05:29:15;22.40;;;11.90;;
5762;SDS011;2906;53.282;9.508;2023-05-15T05:30:17;27.10;;;12.27;;
5762;SDS011;2906;53.282;9.508;2023-05-15T05:31:18;24.77;;;11.50;;
5762;SDS011;2906;53.282;9.508;2023-05-15T05:32:21;31.63;;;11.30;;
5762;SDS011;2906;53.282;9.508;2023-05-15T05:33:22;22.85;;;11.50;;
5762;SDS011;2906;53.282;9.508;2023-05-15T05:34:24;22.63;;;10.60;;
5762;SDS011;2906;53.282;9.508;2023-05-15T05:35:26;26.35;;;11.57;;
5762;SDS011;2906;53.282;9.508;2023-05-15T05:36:30;24.13;;;11.15;;
5762;SDS011;2906;53.282;9.508;2023-05-15T05:37:31;30.98;;;12.43;;
5762;SDS011;2906;53.282;9.508;2023-05-15T05:38:34;22.60;;;11.45;;
5762;SDS011;2906;53.282;9.508;2023-05-15T05:39:35;24.88;;;11.40;;
5762;SDS011;2906;53.282;9.508;2023-05-15T05:40:38;23.35;;;10.32;;
5762;SDS011;2906;53.282;9.508;2023-05-15T05:41:39;24.60;;;11.20;;
5762;SDS011;2906;53.282;9.508;2023-05-15T05:42:41;29.60;;;11.30;;
5762;SDS011;2906;53.282;9.508;2023-05-15T05:43:43;26.83;;;12.25;;
5762;SDS011;2906;53.282;9.508;2023-05-15T05:44:45;21.23;;;10.45;;
5762;SDS011;2906;53.282;9.508;2023-05-15T05:45:46;21.88;;;11.20;;
5762;SDS011;2906;53.282;9.508;2023-05-15T05:46:49;30.45;;;12.73;;
5762;SDS011;2906;53.282;9.508;2023-05-15T05:47:50;25.98;;;12.10;;
5762;SDS011;2906;53.282;9.508;2023-05-15T05:48:52;22.67;;;10.70;;
5762;SDS011;2906;53.282;9.508;2023-05-15T05:49:54;28.02;;;11.68;;
5762;SDS011;2906;53.282;9.508;2023-05-15T05:50:56;24.23;;;10.85;;
5762;SDS011;2906;53.282;9.508;2023-05-15T05:52:05;23.40;;;11.82;;
5762;SDS011;2906;53.282;9.508;2023-05-15T05:53:08;24.80;;;10.23;;
5762;SDS011;2906;53.282;9.508;2023-05-15T05:54:09;22.75;;;10.80;;
5762;SDS011;2906;53.282;9.508;2023-05-15T05:55:14;25.90;;;10.20;;
5762;SDS011;2906;53.282;9.508;2023-05-15T05:56:15;28.48;;;11.93;;
5762;SDS011;2906;53.282;9.508;2023-05-15T05:57:17;21.20;;;10.35;;
5762;SDS011;2906;53.282;9.508;2023-05-15T05:58:18;24.10;;;10.60;;
5762;SDS011;2906;53.282;9.508;2023-05-15T05:59:21;21.08;;;9.90;;
5762;SDS011;2906;53.282;9.508;2023-05-15T06:00:22;22.80;;;10.00;;
5762;SDS011;2906;53.282;9.508;2023-05-15T06:01:25;23.80;;;9.55;;
5762;SDS011;2906;53.282;9.508;2023-05-15T06:02:26;23.77;;;9.43;;
5762;SDS011;2906;53.282;9.508;2023-05-15T06:03:29;22.83;;;9.05;;
5762;SDS011;2906;53.282;9.508;2023-05-15T06:04:30;21.67;;;9.88;;
5762;SDS011;2906;53.282;9.508;2023-05-15T06:05:33;18.52;;;9.40;;
5762;SDS011;2906;53.282;9.508;2023-05-15T06:06:34;18.25;;;8.93;;
5762;SDS011;2906;53.282;9.508;2023-05-15T06:07:38;20.15;;;9.20;;
5762;SDS011;2906;53.282;9.508;2023-05-15T06:08:40;20.90;;;8.63;;
5762;SDS011;2906;53.282;9.508;2023-05-15T06:09:41;25.45;;;14.00;;
5762;SDS011;2906;53.282;9.508;2023-05-15T06:10:45;26.02;;;17.38;;
5762;SDS011;2906;53.282;9.508;2023-05-15T06:11:46;28.23;;;17.50;;
5762;SDS011;2906;53.282;9.508;2023-05-15T06:12:48;22.63;;;10.32;;
5762;SDS011;2906;53.282;9.508;2023-05-15T06:13:50;19.98;;;9.52;;
5762;SDS011;2906;53.282;9.508;2023-05-15T06:14:52;27.13;;;9.65;;
5762;SDS011;2906;53.282;9.508;2023-05-15T06:15:54;18.98;;;9.20;;
5762;SDS011;2906;53.282;9.508;2023-05-15T06:16:56;21.17;;;9.30;;
5762;SDS011;2906;53.282;9.508;2023-05-15T06:17:57;24.48;;;9.98;;
5762;SDS011;2906;53.282;9.508;2023-05-15T06:18:59;21.95;;;10.20;;
5762;SDS011;2906;53.282;9.508;2023-05-15T06:20:01;29.27;;;10.18;;
5762;SDS011;2906;53.282;9.508;2023-05-15T06:21:06;20.33;;;9.95;;
5762;SDS011;2906;53.282;9.508;2023-05-15T06:22:07;17.70;;;9.40;;
5762;SDS011;2906;53.282;9.508;2023-05-15T06:23:11;22.80;;;10.18;;
5762;SDS011;2906;53.282;9.508;2023-05-15T06:24:12;16.90;;;9.13;;